Latest Weather Observations for Hay Point

IDQ60801

Issued at 5:35 am EST Thursday 17 April 2014 (issued every 30 minutes, with the page automatically refreshed every 10 minutes)

About weather observations | Map of weather stations | Latest weather observations for QLD | Other Formats
Station Details ID: 033317 Name: HAY POINT Lat: -21.29 Lon: 149.30 Height: 7.0 m
Data from the previous 72 hours. | See also: Recent months for locations in Queensland
Date/Time
EST
Temp
°C
App
Temp
°C
Dew
Point
Rel
Hum
%
Delta-T
°C
Wind Press
QNH
hPa
Press
MSL
hPa
Rain
since 9 am
mm
Dir
 
Spd
km/h
Gust
km/h
Spd
kts
Gust
kts
17/05:30am - - - - - ENE 13 17 7 9 - - -
17/05:00am - - - - - ENE 15 19 8 10 - - -
17/04:30am - - - - - ENE 17 19 9 10 - - -
17/04:00am - - - - - ENE 17 20 9 11 - - -
17/03:30am - - - - - ENE 17 19 9 10 - - -
17/03:00am - - - - - NE 13 15 7 8 - - -
17/02:30am - - - - - NE 13 17 7 9 - - -
17/02:00am - - - - - NE 15 17 8 9 - - -
17/01:30am - - - - - ENE 13 15 7 8 - - -
17/01:00am - - - - - ENE 11 13 6 7 - - -
17/12:30am - - - - - NE 13 17 7 9 - - -
17/12:00am - - - - - NE 15 17 8 9 - - -
 
Date/Time
EST
Temp
°C
App
Temp
°C
Dew
Point
Rel
Hum
%
Delta-T
°C
Wind Press
QNH
hPa
Press
MSL
hPa
Rain
since 9 am
mm
Dir
 
Spd
km/h
Gust
km/h
Spd
kts
Gust
kts
16/11:30pm - - - - - NNE 11 13 6 7 - - -
16/11:00pm - - - - - NNE 11 13 6 7 - - -
16/10:30pm - - - - - NE 13 15 7 8 - - -
16/10:00pm - - - - - NE 15 17 8 9 - - -
16/09:30pm - - - - - NE 17 19 9 10 - - -
16/09:00pm - - - - - NE 15 17 8 9 - - -
16/08:30pm - - - - - NE 17 19 9 10 - - -
16/08:00pm - - - - - NE 17 19 9 10 - - -
16/07:30pm - - - - - ENE 19 19 10 10 - - -
16/07:00pm - - - - - ENE 17 20 9 11 - - -
16/06:30pm - - - - - ENE 20 26 11 14 - - -
16/06:00pm - - - - - ENE 20 22 11 12 - - -
16/05:30pm - - - - - E 17 22 9 12 - - -
16/05:00pm - - - - - E 17 20 9 11 - - -
16/04:30pm - - - - - E 17 20 9 11 - - -
16/04:00pm - - - - - ENE 19 22 10 12 - - -
16/03:30pm - - - - - E 20 26 11 14 - - -
16/03:00pm - - - - - E 19 22 10 12 - - -
16/02:30pm - - - - - E 17 20 9 11 - - -
16/02:00pm - - - - - E 19 20 10 11 - - -
16/01:30pm - - - - - E 15 19 8 10 - - -
16/01:00pm - - - - - E 17 19 9 10 - - -
16/12:30pm - - - - - E 17 20 9 11 - - -
16/12:00pm - - - - - E 15 19 8 10 - - -
16/11:30am - - - - - E 15 17 8 9 - - -
16/11:00am - - - - - ESE 13 15 7 8 - - -
16/10:30am - - - - - ESE 13 17 7 9 - - -
16/10:00am - - - - - SSE 13 17 7 9 - - -
16/09:30am - - - - - S 13 17 7 9 - - -
16/09:00am - - - - - S 15 19 8 10 - - -
16/08:30am - - - - - S 11 13 6 7 - - -
16/08:00am - - - - - SSW 7 9 4 5 - - -
16/07:30am - - - - - SW 9 11 5 6 - - -
16/07:00am - - - - - SW 9 11 5 6 - - -
16/06:30am - - - - - SW 11 13 6 7 - - -
16/06:00am - - - - - SW 13 15 7 8 - - -
16/05:30am - - - - - SW 15 17 8 9 - - -
16/05:00am - - - - - SW 13 15 7 8 - - -
16/04:30am - - - - - SW 13 15 7 8 - - -
16/04:00am - - - - - SW 13 15 7 8 - - -
16/03:30am - - - - - WSW 11 13 6 7 - - -
16/03:00am - - - - - SW 11 15 6 8 - - -
16/02:30am - - - - - SSW 9 11 5 6 - - -
16/02:00am - - - - - S 11 19 6 10 - - -
16/01:30am - - - - - E 17 19 9 10 - - -
16/01:00am - - - - - ESE 15 19 8 10 - - -
16/12:30am - - - - - ESE 17 19 9 10 - - -
16/12:00am - - - - - E 15 19 8 10 - - -
 
Date/Time
EST
Temp
°C
App
Temp
°C
Dew
Point
Rel
Hum
%
Delta-T
°C
Wind Press
QNH
hPa
Press
MSL
hPa
Rain
since 9 am
mm
Dir
 
Spd
km/h
Gust
km/h
Spd
kts
Gust
kts
15/11:30pm - - - - - E 15 19 8 10 - - -
15/11:00pm - - - - - E 17 19 9 10 - - -
15/10:30pm - - - - - E 17 19 9 10 - - -
15/10:00pm - - - - - E 19 22 10 12 - - -
15/09:30pm - - - - - E 20 22 11 12 - - -
15/09:00pm - - - - - E 20 24 11 13 - - -
15/08:30pm - - - - - ESE 20 26 11 14 - - -
15/08:00pm - - - - - ESE 19 24 10 13 - - -
15/07:30pm - - - - - ESE 22 26 12 14 - - -
15/07:00pm - - - - - SE 20 26 11 14 - - -
15/06:30pm - - - - - SE 20 26 11 14 - - -
15/06:00pm - - - - - SSE 17 22 9 12 - - -
15/05:30pm - - - - - SSE 19 24 10 13 - - -
15/05:00pm - - - - - SE 24 30 13 16 - - -
15/04:30pm - - - - - ESE 22 28 12 15 - - -
15/04:00pm - - - - - SE 19 26 10 14 - - -
15/03:30pm - - - - - SE 19 28 10 15 - - -
15/03:00pm - - - - - SSE 20 28 11 15 - - -
15/02:30pm - - - - - SSE 20 26 11 14 - - -
15/02:00pm - - - - - SE 19 26 10 14 - - -
15/01:30pm - - - - - SSE 19 26 10 14 - - -
15/01:00pm - - - - - SSE 20 26 11 14 - - -
15/12:30pm - - - - - SSE 20 24 11 13 - - -
15/12:00pm - - - - - SSE 26 30 14 16 - - -
15/11:30am - - - - - SSE 26 30 14 16 - - -
15/11:00am - - - - - SSE 22 28 12 15 - - -
15/10:30am - - - - - SSE 26 30 14 16 - - -
15/10:00am - - - - - SSE 26 30 14 16 - - -
15/09:30am - - - - - S 24 30 13 16 - - -
15/09:00am - - - - - S 20 28 11 15 - - -
15/08:30am - - - - - S 22 28 12 15 - - -
15/08:00am - - - - - SSW 24 30 13 16 - - -
15/07:30am - - - - - SSW 24 30 13 16 - - -
15/07:00am - - - - - SSW 20 26 11 14 - - -
15/06:30am - - - - - SSW 17 20 9 11 - - -
15/06:00am - - - - - SSW 15 19 8 10 - - -
15/05:30am - - - - - SSW 13 17 7 9 - - -
15/05:00am - - - - - SW 13 17 7 9 - - -
15/04:30am - - - - - SW 13 15 7 8 - - -
15/04:00am - - - - - SSW 19 26 10 14 - - -
15/03:30am - - - - - S 20 32 11 17 - - -
15/03:00am - - - - - SSW 20 26 11 14 - - -
15/02:30am - - - - - SW 17 20 9 11 - - -
15/02:00am - - - - - SSW 15 19 8 10 - - -
15/01:30am - - - - - SSW 15 17 8 9 - - -
15/01:00am - - - - - SSW 13 17 7 9 - - -
15/12:30am - - - - - SW 11 13 6 7 - - -
15/12:00am - - - - - SW 13 13 7 7 - - -
 
Date/Time
EST
Temp
°C
App
Temp
°C
Dew
Point
Rel
Hum
%
Delta-T
°C
Wind Press
QNH
hPa
Press
MSL
hPa
Rain
since 9 am
mm
Dir
 
Spd
km/h
Gust
km/h
Spd
kts
Gust
kts
14/11:30pm - - - - - SW 11 13 6 7 - - -
14/11:00pm - - - - - SW 11 13 6 7 - - -
14/10:30pm - - - - - SW 11 13 6 7 - - -
14/10:00pm - - - - - SW 9 11 5 6 - - -
14/09:30pm - - - - - WSW 9 11 5 6 - - -
14/09:00pm - - - - - SW 6 7 3 4 - - -
14/08:30pm - - - - - SW 2 6 1 3 - - -
14/08:00pm - - - - - SSW 7 9 4 5 - - -
14/07:30pm - - - - - S 9 13 5 7 - - -
14/07:00pm - - - - - WSW 11 13 6 7 - - -
14/06:30pm - - - - - WSW 11 13 6 7 - - -
14/06:00pm - - - - - SW 9 11 5 6 - - -
14/05:30pm - - - - - SSW 11 15 6 8 - - -
14/05:00pm - - - - - SSW 13 15 7 8 - - -
14/04:30pm - - - - - SW 20 26 11 14 - - -
14/04:00pm - - - - - WSW 24 28 13 15 - - -
14/03:30pm - - - - - SW 20 28 11 15 - - -
14/03:00pm - - - - - SW 17 26 9 14 - - -
14/02:30pm - - - - - S 9 11 5 6 - - -
14/02:00pm - - - - - SW 17 19 9 10 - - -
14/01:30pm - - - - - SSE 13 15 7 8 - - -
14/01:00pm - - - - - S 13 17 7 9 - - -
14/12:30pm - - - - - S 13 19 7 10 - - -
14/12:00pm - - - - - SSW 13 17 7 9 - - -
14/11:30am - - - - - S 19 24 10 13 - - -
14/11:00am - - - - - S 22 30 12 16 - - -
14/10:30am - - - - - SSW 26 32 14 17 - - -
14/10:00am - - - - - SSW 24 32 13 17 - - -
14/09:30am - - - - - SSW 28 33 15 18 - - -
14/09:00am - - - - - SW 17 28 9 15 - - -
14/08:30am - - - - - WSW 17 20 9 11 - - -
14/08:00am - - - - - WSW 17 20 9 11 - - -
14/07:30am - - - - - WSW 19 24 10 13 - - -
14/07:00am - - - - - WSW 19 28 10 15 - - -
14/06:30am - - - - - WSW 19 24 10 13 - - -
14/06:00am - - - - - SW 17 20 9 11 - - -

Other Formats:

Comma delimited format used in spreadsheet applications
http://www.bom.gov.au/fwo/IDQ60801/IDQ60801.99367.axf

JavaScript Object Notation format (JSON) in row-major order
http://www.bom.gov.au/fwo/IDQ60801/IDQ60801.99367.json